ICE6H BIKF-EGPH
Flight info
| Callsign | ICE6H |
|---|---|
| Flight time | 1h 52m |
| Altitude | 39000 |
| Route | OSKUM3C OSKUM DCT RATSU/N0456F390 DCT BARKU DCT BILLY DCT ULLAP DCT RIMOL DCT NESDI N560 FOYLE DCT STIRA |
| Aircraft | B38M/M-SDE1FGHILORVWXY/HB1 |
Departure
| Time | 2026-04-30 19:59 |
|---|---|
| Airport | Keflavik International Airport (BIKF) |
Arrival
| Time | 2026-04-30 21:51 |
|---|---|
| Airport | Edinburgh Airport (EGPH) |
| Time | Latitude | Longitude | Altitude | Speed | Heading |
|---|---|---|---|---|---|
| 2026-04-30 19:12 | 63.99372 | -22.62546 | 144 ft | 0 kts | 116° |
| 2026-04-30 19:47 | 63.99386 | -22.62609 | 147 ft | 2 kts | 116° |
| 2026-04-30 19:47 | 63.99398 | -22.62653 | 144 ft | 4 kts | 137° |
| 2026-04-30 19:48 | 63.99419 | -22.62676 | 144 ft | 4 kts | 182° |
| 2026-04-30 19:48 | 63.99445 | -22.62662 | 144 ft | 4 kts | 198° |
| 2026-04-30 19:48 | 63.99441 | -22.62665 | 144 ft | 4 kts | 200° |
| 2026-04-30 19:48 | 63.99417 | -22.62691 | 144 ft | 4 kts | 204° |
| 2026-04-30 19:49 | 63.99411 | -22.62697 | 144 ft | 1 kts | 203° |
| 2026-04-30 19:53 | 63.99406 | -22.62701 | 143 ft | 2 kts | 203° |
| 2026-04-30 19:53 | 63.99376 | -22.62731 | 143 ft | 8 kts | 203° |
| 2026-04-30 19:53 | 63.99300 | -22.62745 | 143 ft | 14 kts | 180° |
| 2026-04-30 19:54 | 63.99210 | -22.62677 | 143 ft | 15 kts | 177° |
| 2026-04-30 19:54 | 63.99172 | -22.62550 | 143 ft | 10 kts | 90° |
| 2026-04-30 19:54 | 63.99172 | -22.62369 | 143 ft | 13 kts | 89° |
| 2026-04-30 19:54 | 63.99173 | -22.62130 | 143 ft | 17 kts | 90° |
| 2026-04-30 19:55 | 63.99173 | -22.61847 | 144 ft | 18 kts | 90° |
| 2026-04-30 19:55 | 63.99173 | -22.61583 | 150 ft | 15 kts | 90° |
| 2026-04-30 19:55 | 63.99173 | -22.61359 | 155 ft | 13 kts | 90° |
| 2026-04-30 19:55 | 63.99174 | -22.61172 | 159 ft | 11 kts | 90° |
| 2026-04-30 19:56 | 63.99173 | -22.61005 | 162 ft | 10 kts | 89° |
| 2026-04-30 19:56 | 63.99174 | -22.60841 | 166 ft | 8 kts | 90° |
| 2026-04-30 19:56 | 63.99174 | -22.60775 | 168 ft | 2 kts | 90° |
| 2026-04-30 19:56 | 63.99174 | -22.60767 | 168 ft | 0 kts | 90° |
| 2026-04-30 19:57 | 63.99174 | -22.60742 | 169 ft | 5 kts | 90° |
| 2026-04-30 19:58 | 63.99173 | -22.60603 | 174 ft | 13 kts | 91° |
| 2026-04-30 19:58 | 63.99137 | -22.60539 | 176 ft | 7 kts | 180° |
| 2026-04-30 19:58 | 63.99134 | -22.60539 | 176 ft | 0 kts | 180° |
| 2026-04-30 19:58 | 63.99112 | -22.60539 | 176 ft | 14 kts | 180° |
| 2026-04-30 19:59 | 63.98757 | -22.60540 | 174 ft | 87 kts | 180° |
| 2026-04-30 19:59 | 63.97932 | -22.60540 | 175 ft | 146 kts | 180° |
| 2026-04-30 19:59 | 63.95792 | -22.60481 | 1511 ft | 152 kts | 183° |
| 2026-04-30 20:00 | 63.95093 | -22.60269 | 2063 ft | 154 kts | 166° |
| 2026-04-30 20:00 | 63.94174 | -22.58973 | 2669 ft | 162 kts | 139° |
| 2026-04-30 20:00 | 63.93563 | -22.56819 | 3133 ft | 176 kts | 115° |
| 2026-04-30 20:00 | 63.93194 | -22.54008 | 3520 ft | 196 kts | 105° |
| 2026-04-30 20:01 | 63.92552 | -22.47314 | 4261 ft | 238 kts | 105° |
| 2026-04-30 20:01 | 63.92181 | -22.43479 | 4642 ft | 258 kts | 105° |
| 2026-04-30 20:01 | 63.91791 | -22.39484 | 5371 ft | 258 kts | 105° |
| 2026-04-30 20:02 | 63.90984 | -22.31269 | 6811 ft | 275 kts | 105° |
| 2026-04-30 20:02 | 63.90552 | -22.26897 | 7340 ft | 292 kts | 105° |
| 2026-04-30 20:03 | 63.89639 | -22.17694 | 8845 ft | 304 kts | 106° |
| 2026-04-30 20:03 | 63.89167 | -22.12971 | 9638 ft | 309 kts | 106° |
| 2026-04-30 20:03 | 63.88689 | -22.08186 | 10264 ft | 319 kts | 106° |
| 2026-04-30 20:03 | 63.88187 | -22.03197 | 10601 ft | 338 kts | 106° |
| 2026-04-30 20:04 | 63.87648 | -21.97842 | 10896 ft | 357 kts | 106° |
| 2026-04-30 20:04 | 63.87078 | -21.92220 | 11294 ft | 372 kts | 106° |
| 2026-04-30 20:04 | 63.86495 | -21.86491 | 11741 ft | 384 kts | 106° |
| 2026-04-30 20:05 | 63.85266 | -21.74484 | 12957 ft | 397 kts | 106° |
| 2026-04-30 20:05 | 63.84632 | -21.68332 | 13583 ft | 404 kts | 106° |
| 2026-04-30 20:05 | 63.83328 | -21.55769 | 14761 ft | 414 kts | 106° |
| 2026-04-30 20:06 | 63.82664 | -21.49417 | 15357 ft | 419 kts | 106° |
| 2026-04-30 20:06 | 63.81986 | -21.42965 | 16008 ft | 422 kts | 107° |
| 2026-04-30 20:06 | 63.81301 | -21.36477 | 16595 ft | 427 kts | 107° |
| 2026-04-30 20:06 | 63.80603 | -21.29887 | 17172 ft | 432 kts | 107° |
| 2026-04-30 20:07 | 63.79906 | -21.23342 | 17736 ft | 436 kts | 107° |
| 2026-04-30 20:07 | 63.79178 | -21.16545 | 18298 ft | 441 kts | 107° |
| 2026-04-30 20:07 | 63.77716 | -21.02978 | 19300 ft | 448 kts | 107° |
| 2026-04-30 20:08 | 63.76974 | -20.96143 | 19704 ft | 451 kts | 107° |
| 2026-04-30 20:08 | 63.76221 | -20.89241 | 20235 ft | 454 kts | 107° |
| 2026-04-30 20:08 | 63.75458 | -20.82289 | 20727 ft | 457 kts | 107° |
| 2026-04-30 20:08 | 63.74699 | -20.75401 | 21215 ft | 460 kts | 107° |
| 2026-04-30 20:09 | 63.73921 | -20.68377 | 21704 ft | 463 kts | 107° |
| 2026-04-30 20:09 | 63.73134 | -20.61304 | 22184 ft | 466 kts | 107° |
| 2026-04-30 20:09 | 63.71560 | -20.47008 | 23156 ft | 473 kts | 102° |
| 2026-04-30 20:10 | 63.70649 | -20.32306 | 23961 ft | 476 kts | 107° |
| 2026-04-30 20:10 | 63.69496 | -20.25363 | 24325 ft | 471 kts | 121° |
| 2026-04-30 20:10 | 63.68078 | -20.18659 | 24674 ft | 476 kts | 119° |
| 2026-04-30 20:11 | 63.65271 | -20.05089 | 25442 ft | 480 kts | 119° |
| 2026-04-30 20:11 | 63.63851 | -19.98266 | 25806 ft | 482 kts | 119° |
| 2026-04-30 20:11 | 63.62429 | -19.91459 | 26188 ft | 484 kts | 119° |
| 2026-04-30 20:12 | 63.59565 | -19.77806 | 26915 ft | 486 kts | 119° |
| 2026-04-30 20:12 | 63.58117 | -19.70941 | 27314 ft | 487 kts | 119° |
| 2026-04-30 20:12 | 63.56661 | -19.64057 | 27632 ft | 490 kts | 119° |
| 2026-04-30 20:13 | 63.55197 | -19.57165 | 27994 ft | 491 kts | 119° |
| 2026-04-30 20:13 | 63.53721 | -19.50233 | 28404 ft | 491 kts | 119° |
| 2026-04-30 20:13 | 63.52244 | -19.43317 | 28779 ft | 493 kts | 119° |
| 2026-04-30 20:13 | 63.50765 | -19.36420 | 29079 ft | 495 kts | 119° |
| 2026-04-30 20:14 | 63.49270 | -19.29468 | 29403 ft | 497 kts | 119° |
| 2026-04-30 20:14 | 63.47763 | -19.22485 | 29702 ft | 499 kts | 119° |
| 2026-04-30 20:14 | 63.46247 | -19.15482 | 30006 ft | 501 kts | 119° |
| 2026-04-30 20:14 | 63.44719 | -19.08453 | 30259 ft | 502 kts | 119° |
| 2026-04-30 20:15 | 63.43192 | -19.01442 | 30525 ft | 504 kts | 119° |
| 2026-04-30 20:15 | 63.41650 | -18.94392 | 30829 ft | 504 kts | 119° |
| 2026-04-30 20:15 | 63.40116 | -18.87398 | 31192 ft | 503 kts | 120° |
| 2026-04-30 20:15 | 63.38579 | -18.80417 | 31530 ft | 501 kts | 120° |
| 2026-04-30 20:16 | 63.37040 | -18.73449 | 31885 ft | 500 kts | 120° |
| 2026-04-30 20:16 | 63.35501 | -18.66503 | 32231 ft | 499 kts | 120° |
| 2026-04-30 20:16 | 63.33960 | -18.59569 | 32580 ft | 498 kts | 120° |
| 2026-04-30 20:16 | 63.32424 | -18.52683 | 32948 ft | 496 kts | 121° |
| 2026-04-30 20:17 | 63.30907 | -18.45902 | 33287 ft | 495 kts | 121° |
| 2026-04-30 20:17 | 63.29380 | -18.39099 | 33604 ft | 494 kts | 121° |
| 2026-04-30 20:17 | 63.27840 | -18.32259 | 33919 ft | 494 kts | 121° |
| 2026-04-30 20:17 | 63.26302 | -18.25449 | 34162 ft | 493 kts | 121° |
| 2026-04-30 20:18 | 63.24760 | -18.18645 | 34355 ft | 494 kts | 121° |
| 2026-04-30 20:18 | 63.23211 | -18.11827 | 34548 ft | 494 kts | 121° |
| 2026-04-30 20:18 | 63.21656 | -18.05011 | 34738 ft | 495 kts | 121° |
| 2026-04-30 20:18 | 63.20098 | -17.98200 | 34872 ft | 496 kts | 121° |
| 2026-04-30 20:19 | 63.18541 | -17.91414 | 35051 ft | 497 kts | 121° |
| 2026-04-30 20:19 | 63.16974 | -17.84607 | 35246 ft | 497 kts | 121° |
| 2026-04-30 20:19 | 63.15396 | -17.77775 | 35432 ft | 498 kts | 121° |
| 2026-04-30 20:19 | 63.13816 | -17.70955 | 35615 ft | 499 kts | 122° |
| 2026-04-30 20:20 | 63.12228 | -17.64120 | 35811 ft | 499 kts | 122° |
| 2026-04-30 20:20 | 63.10639 | -17.57311 | 35990 ft | 500 kts | 122° |
| 2026-04-30 20:20 | 63.09044 | -17.50485 | 36174 ft | 500 kts | 122° |
| 2026-04-30 20:20 | 63.07441 | -17.43654 | 36337 ft | 501 kts | 122° |
| 2026-04-30 20:21 | 63.05845 | -17.36874 | 36508 ft | 501 kts | 122° |
| 2026-04-30 20:21 | 63.04254 | -17.30136 | 36677 ft | 502 kts | 122° |
| 2026-04-30 20:21 | 63.02639 | -17.23314 | 36846 ft | 502 kts | 122° |
| 2026-04-30 20:21 | 63.00999 | -17.16413 | 37005 ft | 502 kts | 122° |
| 2026-04-30 20:22 | 62.99398 | -17.09693 | 37143 ft | 502 kts | 122° |
| 2026-04-30 20:22 | 62.97773 | -17.02898 | 37326 ft | 502 kts | 122° |
| 2026-04-30 20:22 | 62.96146 | -16.96113 | 37491 ft | 502 kts | 122° |
| 2026-04-30 20:22 | 62.94522 | -16.89363 | 37634 ft | 502 kts | 122° |
| 2026-04-30 20:23 | 62.92887 | -16.82585 | 37779 ft | 502 kts | 122° |
| 2026-04-30 20:23 | 62.91246 | -16.75805 | 37922 ft | 502 kts | 122° |
| 2026-04-30 20:23 | 62.89606 | -16.69048 | 38057 ft | 503 kts | 122° |
| 2026-04-30 20:23 | 62.87958 | -16.62284 | 38200 ft | 503 kts | 122° |
| 2026-04-30 20:24 | 62.86307 | -16.55525 | 38333 ft | 503 kts | 122° |
| 2026-04-30 20:24 | 62.84650 | -16.48765 | 38445 ft | 503 kts | 122° |
| 2026-04-30 20:24 | 62.83001 | -16.42056 | 38561 ft | 503 kts | 122° |
| 2026-04-30 20:24 | 62.81340 | -16.35317 | 38666 ft | 504 kts | 122° |
| 2026-04-30 20:25 | 62.78006 | -16.21858 | 38869 ft | 502 kts | 123° |
| 2026-04-30 20:25 | 62.76361 | -16.15247 | 39004 ft | 500 kts | 123° |
| 2026-04-30 20:26 | 62.73008 | -16.01835 | 39003 ft | 500 kts | 123° |
| 2026-04-30 20:26 | 62.68006 | -15.81974 | 39012 ft | 500 kts | 123° |
| 2026-04-30 20:27 | 62.61300 | -15.55627 | 39020 ft | 499 kts | 123° |
| 2026-04-30 20:28 | 62.54541 | -15.29383 | 39024 ft | 498 kts | 123° |
| 2026-04-30 20:30 | 62.46033 | -14.96782 | 39034 ft | 498 kts | 124° |
| 2026-04-30 20:31 | 62.35713 | -14.57864 | 39025 ft | 498 kts | 124° |
| 2026-04-30 20:32 | 62.27067 | -14.25774 | 39068 ft | 498 kts | 124° |
| 2026-04-30 20:33 | 62.21834 | -14.06571 | 39070 ft | 497 kts | 124° |
| 2026-04-30 20:34 | 62.16570 | -13.87419 | 39068 ft | 497 kts | 124° |
| 2026-04-30 20:35 | 62.11306 | -13.68426 | 39082 ft | 493 kts | 124° |
| 2026-04-30 20:35 | 62.06049 | -13.49620 | 39089 ft | 492 kts | 125° |
| 2026-04-30 20:36 | 62.02526 | -13.37106 | 39089 ft | 492 kts | 125° |
| 2026-04-30 20:37 | 61.97222 | -13.18389 | 39102 ft | 492 kts | 125° |
| 2026-04-30 20:37 | 61.93701 | -13.06048 | 39103 ft | 492 kts | 125° |
| 2026-04-30 20:38 | 61.90123 | -12.93580 | 39094 ft | 489 kts | 126° |
| 2026-04-30 20:38 | 61.86625 | -12.81450 | 39101 ft | 483 kts | 126° |
| 2026-04-30 20:39 | 61.81349 | -12.63285 | 39118 ft | 484 kts | 126° |
| 2026-04-30 20:40 | 61.76075 | -12.45267 | 39118 ft | 483 kts | 126° |
| 2026-04-30 20:40 | 61.72528 | -12.33229 | 39124 ft | 483 kts | 126° |
| 2026-04-30 20:41 | 61.67211 | -12.15302 | 39108 ft | 483 kts | 127° |
| 2026-04-30 20:41 | 61.63621 | -12.03276 | 39125 ft | 480 kts | 127° |
| 2026-04-30 20:42 | 61.60083 | -11.91489 | 39135 ft | 480 kts | 127° |
| 2026-04-30 20:43 | 61.54731 | -11.73769 | 39127 ft | 480 kts | 127° |
| 2026-04-30 20:43 | 61.51146 | -11.61974 | 39144 ft | 480 kts | 127° |
| 2026-04-30 20:44 | 61.45742 | -11.44314 | 39138 ft | 480 kts | 127° |
| 2026-04-30 20:45 | 61.38543 | -11.20992 | 39143 ft | 477 kts | 128° |
| 2026-04-30 20:45 | 61.34934 | -11.09391 | 39148 ft | 477 kts | 128° |
| 2026-04-30 20:46 | 61.27696 | -10.86295 | 39148 ft | 477 kts | 128° |
| 2026-04-30 20:47 | 61.22261 | -10.69104 | 39155 ft | 477 kts | 128° |
| 2026-04-30 20:48 | 61.16778 | -10.51890 | 39154 ft | 477 kts | 128° |
| 2026-04-30 20:48 | 61.13718 | -10.42339 | 39155 ft | 476 kts | 129° |
| 2026-04-30 20:49 | 61.10076 | -10.31021 | 39148 ft | 475 kts | 129° |
| 2026-04-30 20:50 | 61.04570 | -10.14018 | 39154 ft | 475 kts | 129° |
| 2026-04-30 20:50 | 61.00868 | -10.02798 | 39149 ft | 471 kts | 135° |
| 2026-04-30 20:50 | 60.98658 | -9.98301 | 39140 ft | 457 kts | 149° |
| 2026-04-30 20:51 | 60.96186 | -9.94462 | 39143 ft | 457 kts | 148° |
| 2026-04-30 20:51 | 60.88558 | -9.82737 | 39163 ft | 456 kts | 149° |
| 2026-04-30 20:52 | 60.83458 | -9.75079 | 39161 ft | 456 kts | 149° |
| 2026-04-30 20:53 | 60.75766 | -9.63600 | 39162 ft | 456 kts | 149° |
| 2026-04-30 20:53 | 60.70640 | -9.55991 | 39155 ft | 455 kts | 149° |
| 2026-04-30 20:54 | 60.62962 | -9.44647 | 39170 ft | 456 kts | 149° |
| 2026-04-30 20:55 | 60.55253 | -9.33329 | 39167 ft | 455 kts | 149° |
| 2026-04-30 20:55 | 60.50119 | -9.25829 | 39174 ft | 455 kts | 149° |
| 2026-04-30 20:56 | 60.42435 | -9.14657 | 39162 ft | 455 kts | 149° |
| 2026-04-30 20:57 | 60.34753 | -9.03558 | 39171 ft | 452 kts | 149° |
| 2026-04-30 20:57 | 60.29634 | -8.96197 | 39176 ft | 452 kts | 149° |
| 2026-04-30 20:58 | 60.21954 | -8.85206 | 39176 ft | 452 kts | 150° |
| 2026-04-30 20:58 | 60.16823 | -8.77900 | 39148 ft | 452 kts | 149° |
| 2026-04-30 20:59 | 60.09200 | -8.67098 | 39176 ft | 445 kts | 149° |
| 2026-04-30 21:00 | 59.99412 | -8.52412 | 39204 ft | 447 kts | 144° |
| 2026-04-30 21:01 | 59.92376 | -8.40254 | 39183 ft | 447 kts | 144° |
| 2026-04-30 21:02 | 59.85334 | -8.28112 | 39177 ft | 445 kts | 144° |
| 2026-04-30 21:02 | 59.80652 | -8.20077 | 39181 ft | 445 kts | 144° |
| 2026-04-30 21:03 | 59.75960 | -8.12056 | 39184 ft | 445 kts | 144° |
| 2026-04-30 21:03 | 59.71287 | -8.04098 | 39184 ft | 445 kts | 144° |
| 2026-04-30 21:04 | 59.66585 | -7.96123 | 39187 ft | 445 kts | 144° |
| 2026-04-30 21:04 | 59.59555 | -7.84254 | 39183 ft | 441 kts | 144° |
| 2026-04-30 21:05 | 59.54893 | -7.76418 | 39187 ft | 440 kts | 145° |
| 2026-04-30 21:05 | 59.50229 | -7.68612 | 39189 ft | 439 kts | 145° |
| 2026-04-30 21:06 | 59.45571 | -7.60844 | 39192 ft | 439 kts | 145° |
| 2026-04-30 21:06 | 59.40909 | -7.53098 | 39192 ft | 439 kts | 145° |
| 2026-04-30 21:07 | 59.36241 | -7.45370 | 39186 ft | 438 kts | 145° |
| 2026-04-30 21:07 | 59.31617 | -7.37745 | 39193 ft | 437 kts | 145° |
| 2026-04-30 21:08 | 59.26954 | -7.30084 | 39195 ft | 437 kts | 145° |
| 2026-04-30 21:08 | 59.22301 | -7.22466 | 39195 ft | 437 kts | 145° |
| 2026-04-30 21:09 | 59.17628 | -7.14845 | 39195 ft | 437 kts | 145° |
| 2026-04-30 21:09 | 59.12959 | -7.07258 | 39195 ft | 437 kts | 145° |
| 2026-04-30 21:10 | 59.08290 | -6.99699 | 39192 ft | 435 kts | 145° |
| 2026-04-30 21:10 | 59.03654 | -6.92219 | 39199 ft | 435 kts | 145° |
| 2026-04-30 21:11 | 58.98990 | -6.84723 | 39194 ft | 435 kts | 145° |
| 2026-04-30 21:11 | 58.94330 | -6.77260 | 39194 ft | 435 kts | 145° |
| 2026-04-30 21:12 | 58.89693 | -6.69862 | 39189 ft | 435 kts | 145° |
| 2026-04-30 21:12 | 58.85035 | -6.62453 | 39172 ft | 434 kts | 145° |
| 2026-04-30 21:13 | 58.80366 | -6.55058 | 39192 ft | 434 kts | 145° |
| 2026-04-30 21:13 | 58.75702 | -6.47695 | 39197 ft | 434 kts | 145° |
| 2026-04-30 21:14 | 58.71027 | -6.40342 | 39197 ft | 434 kts | 145° |
| 2026-04-30 21:14 | 58.66363 | -6.33032 | 39188 ft | 434 kts | 146° |
| 2026-04-30 21:15 | 58.61680 | -6.25719 | 39186 ft | 434 kts | 146° |
| 2026-04-30 21:15 | 58.56990 | -6.18421 | 39190 ft | 434 kts | 146° |
| 2026-04-30 21:16 | 58.52298 | -6.11145 | 39191 ft | 434 kts | 146° |
| 2026-04-30 21:16 | 58.47611 | -6.03903 | 39192 ft | 434 kts | 146° |
| 2026-04-30 21:17 | 58.42911 | -5.96666 | 39192 ft | 434 kts | 146° |
| 2026-04-30 21:17 | 58.38203 | -5.89442 | 39192 ft | 434 kts | 146° |
| 2026-04-30 21:18 | 58.33525 | -5.82289 | 39173 ft | 434 kts | 146° |
| 2026-04-30 21:18 | 58.28745 | -5.75341 | 39178 ft | 429 kts | 155° |
| 2026-04-30 21:19 | 58.26047 | -5.73175 | 39190 ft | 417 kts | 169° |
| 2026-04-30 21:19 | 58.23252 | -5.71625 | 39174 ft | 421 kts | 164° |
| 2026-04-30 21:19 | 58.17716 | -5.67900 | 39206 ft | 423 kts | 164° |
| 2026-04-30 21:20 | 58.12165 | -5.64158 | 39187 ft | 423 kts | 164° |
| 2026-04-30 21:20 | 58.06606 | -5.60419 | 39176 ft | 423 kts | 164° |
| 2026-04-30 21:21 | 58.01072 | -5.56710 | 39185 ft | 423 kts | 164° |
| 2026-04-30 21:22 | 57.92790 | -5.51181 | 39186 ft | 423 kts | 164° |
| 2026-04-30 21:23 | 57.81726 | -5.43838 | 39183 ft | 421 kts | 164° |
| 2026-04-30 21:23 | 57.73416 | -5.38353 | 39194 ft | 423 kts | 164° |
| 2026-04-30 21:24 | 57.67863 | -5.34703 | 39162 ft | 423 kts | 164° |
| 2026-04-30 21:24 | 57.65086 | -5.32883 | 38888 ft | 421 kts | 164° |
| 2026-04-30 21:24 | 57.62344 | -5.31088 | 38457 ft | 414 kts | 164° |
| 2026-04-30 21:25 | 57.56928 | -5.27552 | 37620 ft | 414 kts | 164° |
| 2026-04-30 21:25 | 57.54206 | -5.25779 | 37203 ft | 415 kts | 164° |
| 2026-04-30 21:25 | 57.51475 | -5.24002 | 36795 ft | 416 kts | 163° |
| 2026-04-30 21:26 | 57.45992 | -5.20443 | 36027 ft | 419 kts | 163° |
| 2026-04-30 21:26 | 57.43243 | -5.18662 | 35645 ft | 420 kts | 163° |
| 2026-04-30 21:27 | 57.37710 | -5.15088 | 34898 ft | 421 kts | 163° |
| 2026-04-30 21:27 | 57.34953 | -5.13311 | 34501 ft | 422 kts | 163° |
| 2026-04-30 21:27 | 57.32181 | -5.11528 | 34021 ft | 423 kts | 163° |
| 2026-04-30 21:28 | 57.26600 | -5.07945 | 32924 ft | 426 kts | 163° |
| 2026-04-30 21:28 | 57.23829 | -5.06170 | 32396 ft | 428 kts | 163° |
| 2026-04-30 21:28 | 57.18188 | -5.02566 | 31372 ft | 431 kts | 163° |
| 2026-04-30 21:29 | 57.15350 | -5.00757 | 30881 ft | 433 kts | 163° |
| 2026-04-30 21:29 | 57.06780 | -4.95315 | 29273 ft | 436 kts | 163° |
| 2026-04-30 21:30 | 57.01055 | -4.91693 | 28190 ft | 435 kts | 163° |
| 2026-04-30 21:31 | 56.92491 | -4.86298 | 26656 ft | 433 kts | 163° |
| 2026-04-30 21:31 | 56.86814 | -4.82736 | 25680 ft | 432 kts | 163° |
| 2026-04-30 21:32 | 56.81176 | -4.79215 | 24739 ft | 424 kts | 163° |
| 2026-04-30 21:32 | 56.78402 | -4.77483 | 24305 ft | 419 kts | 163° |
| 2026-04-30 21:32 | 56.75655 | -4.75768 | 23851 ft | 414 kts | 163° |
| 2026-04-30 21:32 | 56.72955 | -4.74091 | 23344 ft | 406 kts | 163° |
| 2026-04-30 21:33 | 56.70336 | -4.72467 | 22830 ft | 399 kts | 163° |
| 2026-04-30 21:33 | 56.65167 | -4.69266 | 21837 ft | 387 kts | 163° |
| 2026-04-30 21:33 | 56.62644 | -4.67707 | 21346 ft | 382 kts | 163° |
| 2026-04-30 21:34 | 56.60152 | -4.66170 | 20864 ft | 377 kts | 163° |
| 2026-04-30 21:34 | 56.55285 | -4.63174 | 19942 ft | 367 kts | 163° |
| 2026-04-30 21:34 | 56.52875 | -4.61691 | 19477 ft | 363 kts | 163° |
| 2026-04-30 21:35 | 56.50496 | -4.60230 | 19016 ft | 360 kts | 163° |
| 2026-04-30 21:35 | 56.48136 | -4.58783 | 18613 ft | 355 kts | 163° |
| 2026-04-30 21:35 | 56.45816 | -4.57363 | 18221 ft | 350 kts | 163° |
| 2026-04-30 21:35 | 56.43525 | -4.55963 | 17852 ft | 344 kts | 163° |
| 2026-04-30 21:36 | 56.41267 | -4.54584 | 17472 ft | 341 kts | 163° |
| 2026-04-30 21:36 | 56.39046 | -4.53230 | 17093 ft | 336 kts | 163° |
| 2026-04-30 21:37 | 56.33406 | -4.49796 | 16186 ft | 315 kts | 163° |
| 2026-04-30 21:37 | 56.31345 | -4.48545 | 15849 ft | 310 kts | 164° |
| 2026-04-30 21:37 | 56.28648 | -4.46909 | 15408 ft | 308 kts | 164° |
| 2026-04-30 21:37 | 56.26624 | -4.45683 | 15075 ft | 307 kts | 164° |
| 2026-04-30 21:38 | 56.25255 | -4.44854 | 14853 ft | 307 kts | 164° |
| 2026-04-30 21:38 | 56.23236 | -4.43634 | 14520 ft | 306 kts | 164° |
| 2026-04-30 21:38 | 56.21230 | -4.42403 | 14182 ft | 304 kts | 161° |
| 2026-04-30 21:38 | 56.19431 | -4.40466 | 13832 ft | 307 kts | 145° |
| 2026-04-30 21:39 | 56.17824 | -4.38034 | 13505 ft | 305 kts | 143° |
| 2026-04-30 21:39 | 56.16219 | -4.35591 | 13123 ft | 303 kts | 144° |
| 2026-04-30 21:39 | 56.14615 | -4.33163 | 12782 ft | 301 kts | 144° |
| 2026-04-30 21:39 | 56.13017 | -4.30754 | 12429 ft | 299 kts | 144° |
| 2026-04-30 21:40 | 56.11428 | -4.28374 | 12077 ft | 297 kts | 144° |
| 2026-04-30 21:40 | 56.09865 | -4.26044 | 11734 ft | 295 kts | 144° |
| 2026-04-30 21:40 | 56.08270 | -4.23675 | 11393 ft | 293 kts | 144° |
| 2026-04-30 21:40 | 56.06702 | -4.21364 | 11055 ft | 291 kts | 144° |
| 2026-04-30 21:41 | 56.05135 | -4.19071 | 10724 ft | 290 kts | 144° |
| 2026-04-30 21:41 | 56.03599 | -4.16836 | 10380 ft | 286 kts | 144° |
| 2026-04-30 21:41 | 56.02070 | -4.14618 | 10045 ft | 279 kts | 144° |
| 2026-04-30 21:41 | 56.00573 | -4.12469 | 9676 ft | 273 kts | 144° |
| 2026-04-30 21:42 | 55.99111 | -4.10363 | 9319 ft | 267 kts | 144° |
| 2026-04-30 21:42 | 55.97681 | -4.08313 | 8965 ft | 263 kts | 144° |
| 2026-04-30 21:42 | 55.96264 | -4.06293 | 8595 ft | 259 kts | 144° |
| 2026-04-30 21:42 | 55.94861 | -4.04310 | 8247 ft | 255 kts | 144° |
| 2026-04-30 21:43 | 55.93474 | -4.02361 | 7895 ft | 253 kts | 144° |
| 2026-04-30 21:43 | 55.92091 | -4.00429 | 7551 ft | 252 kts | 144° |
| 2026-04-30 21:43 | 55.90709 | -3.98512 | 7261 ft | 251 kts | 144° |
| 2026-04-30 21:43 | 55.89335 | -3.96617 | 6916 ft | 249 kts | 144° |
| 2026-04-30 21:44 | 55.87958 | -3.94734 | 6549 ft | 249 kts | 144° |
| 2026-04-30 21:44 | 55.86593 | -3.92866 | 6189 ft | 246 kts | 144° |
| 2026-04-30 21:44 | 55.85253 | -3.91027 | 5821 ft | 241 kts | 144° |
| 2026-04-30 21:44 | 55.84001 | -3.89077 | 5457 ft | 237 kts | 135° |
| 2026-04-30 21:45 | 55.82999 | -3.86789 | 5105 ft | 234 kts | 124° |
| 2026-04-30 21:45 | 55.82198 | -3.84295 | 4734 ft | 231 kts | 121° |
| 2026-04-30 21:45 | 55.81453 | -3.81775 | 4368 ft | 229 kts | 118° |
| 2026-04-30 21:45 | 55.80968 | -3.79112 | 4069 ft | 226 kts | 97° |
| 2026-04-30 21:46 | 55.81235 | -3.76441 | 3985 ft | 219 kts | 66° |
| 2026-04-30 21:46 | 55.82111 | -3.74228 | 4000 ft | 220 kts | 54° |
| 2026-04-30 21:46 | 55.83031 | -3.72056 | 4020 ft | 221 kts | 57° |
| 2026-04-30 21:46 | 55.83883 | -3.69811 | 4039 ft | 220 kts | 59° |
| 2026-04-30 21:47 | 55.84690 | -3.67541 | 3781 ft | 212 kts | 60° |
| 2026-04-30 21:47 | 55.85429 | -3.65395 | 3536 ft | 203 kts | 62° |
| 2026-04-30 21:47 | 55.86154 | -3.63266 | 3278 ft | 200 kts | 62° |
| 2026-04-30 21:47 | 55.86870 | -3.61165 | 3029 ft | 198 kts | 62° |
| 2026-04-30 21:48 | 55.87570 | -3.59114 | 2815 ft | 187 kts | 62° |
| 2026-04-30 21:48 | 55.88215 | -3.57221 | 2557 ft | 174 kts | 63° |
| 2026-04-30 21:48 | 55.88832 | -3.55404 | 2339 ft | 168 kts | 63° |
| 2026-04-30 21:48 | 55.89431 | -3.53643 | 2116 ft | 162 kts | 62° |
| 2026-04-30 21:49 | 55.89998 | -3.51973 | 1894 ft | 154 kts | 62° |
| 2026-04-30 21:49 | 55.90541 | -3.50376 | 1685 ft | 149 kts | 62° |
| 2026-04-30 21:49 | 55.91072 | -3.48811 | 1476 ft | 147 kts | 61° |
| 2026-04-30 21:49 | 55.91598 | -3.47262 | 1286 ft | 146 kts | 61° |
| 2026-04-30 21:50 | 55.92117 | -3.45732 | 1080 ft | 143 kts | 60° |
| 2026-04-30 21:50 | 55.92632 | -3.44234 | 856 ft | 140 kts | 60° |
| 2026-04-30 21:50 | 55.93143 | -3.42719 | 672 ft | 145 kts | 59° |
| 2026-04-30 21:50 | 55.93659 | -3.41210 | 466 ft | 139 kts | 58° |
| 2026-04-30 21:51 | 55.94151 | -3.39755 | 264 ft | 139 kts | 58° |
| 2026-04-30 21:51 | 55.94639 | -3.38317 | 115 ft | 129 kts | 58° |
| 2026-04-30 21:51 | 55.95021 | -3.37188 | 113 ft | 75 kts | 59° |
| 2026-04-30 21:51 | 55.95206 | -3.36641 | 114 ft | 41 kts | 59° |
| 2026-04-30 21:52 | 55.95226 | -3.36384 | 116 ft | 19 kts | 149° |
| 2026-04-30 21:52 | 55.95133 | -3.36318 | 118 ft | 12 kts | 201° |
| 2026-04-30 21:52 | 55.95064 | -3.36394 | 118 ft | 13 kts | 168° |
| 2026-04-30 21:52 | 55.94992 | -3.36465 | 118 ft | 14 kts | 236° |
| 2026-04-30 21:53 | 55.94939 | -3.36594 | 115 ft | 9 kts | 195° |
| 2026-04-30 21:53 | 55.94894 | -3.36562 | 116 ft | 5 kts | 149° |
| 2026-04-30 21:53 | 55.94885 | -3.36552 | 117 ft | 0 kts | 149° |